Date,TemperatureHighF,TemperatureAvgF,TemperatureLowF,DewpointHighF,DewpointAvgF,DewpointLowF,HumidityHigh,HumidityAvg,HumidityLow,PressureMaxIn,PressureMinIn,WindSpeedMaxMPH,WindSpeedAvgMPH,GustSpeedMaxMPH,PrecipitationSumIn
2013-1-1,32.4,19.8,4.3,22.3,14.6,3.4,98,81,52,30.03,29.90,11,2,0,0.00
2013-1-2,29.5,20.5,8.1,23.4,18.4,7.6,98,92,77,30.06,29.94,7,0,0,0.01
2013-1-3,28.9,21.3,5.9,27.9,19.8,5.2,98,94,81,30.04,29.94,8,0,0,0.00
2013-1-4,38.7,26.4,17.6,27.8,23.1,17.1,98,88,64,30.07,29.91,8,1,0,0.00
2013-1-5,41.2,24.5,6.6,33.0,22.4,6.0,98,92,71,30.15,29.90,11,1,0,0.02
2013-1-6,37.6,33.1,30.7,37.1,32.4,28.7,98,97,91,30.14,29.78,7,1,0,0.08
2013-1-7,44.4,30.8,22.8,32.8,27.8,22.3,98,89,63,30.26,30.02,10,2,0,0.02
2013-1-8,43.2,26.1,12.9,34.2,23.8,12.5,98,92,70,30.13,30.03,7,0,0,0.01
2013-1-9,54.3,36.6,15.8,42.0,30.9,15.3,98,82,56,30.33,29.91,8,2,0,0.01
2013-1-10,48.6,30.9,16.0,36.6,28.2,15.5,98,91,62,30.46,30.04,11,2,0,0.11
2013-1-11,57.4,42.9,34.3,56.0,42.3,33.8,98,98,92,30.04,29.64,9,2,0,0.80
2013-1-12,66.0,48.8,40.3,56.7,47.0,39.8,98,94,68,29.83,29.71,5,1,0,0.05
2013-1-13,45.1,36.9,28.4,44.6,36.4,27.9,98,98,98,29.92,29.64,13,3,0,1.11
2013-1-14,27.5,21.8,11.7,27.0,20.2,11.2,98,93,82,30.32,29.93,12,3,0,0.00
2013-1-15,35.6,20.8,8.2,28.1,18.0,6.6,98,90,65,30.31,30.02,6,0,0,0.00
2013-1-16,42.1,28.5,16.3,31.4,23.3,15.9,98,83,52,30.01,29.69,14,1,0,0.00
2013-1-17,40.1,29.5,19.2,32.4,24.2,9.8,98,81,63,30.19,29.83,17,4,0,0.00
2013-1-18,35.1,25.1,11.1,27.2,19.0,10.0,98,78,59,30.31,29.84,14,4,0,0.00
2013-1-19,50.9,41.6,33.1,39.8,35.2,27.0,91,78,64,29.84,29.46,12,4,0,0.00
2013-1-20,42.3,21.6,15.6,38.8,13.9,7.3,88,72,61,30.05,29.44,18,7,0,0.00
2013-1-21,20.3,12.4,1.8,16.6,9.2,-1.4,98,87,69,30.01,29.83,16,3,0,0.00
2013-1-22,18.9,3.3,-12.5,6.6,-2.1,-15.5,95,79,51,30.15,29.98,7,1,0,0.00
2013-1-23,24.4,10.7,-1.7,14.4,6.5,-3.6,98,84,63,30.15,29.93,10,1,0,0.00
2013-1-24,28.2,11.9,2.5,13.7,5.7,-0.7,98,79,38,30.46,29.97,12,3,0,0.00
2013-1-25,24.8,17.0,9.5,21.0,14.7,6.0,98,91,78,30.36,29.87,11,2,0,0.00
2013-1-26,30.0,20.5,10.9,23.1,18.0,10.5,98,91,70,30.32,29.91,9,1,0,0.00
2013-1-27,31.6,19.5,4.5,29.2,16.9,4.0,98,90,69,30.35,29.98,18,3,0,0.02
2013-1-28,45.7,37.6,30.2,45.1,37.0,29.7,98,98,98,29.97,29.73,10,2,0,0.46
2013-1-29,58.1,46.5,34.3,57.5,46.0,33.8,98,98,98,29.90,29.32,12,3,0,0.94
2013-1-30,59.7,48.5,30.6,59.2,48.0,30.1,98,98,98,29.32,29.00,17,3,0,0.74
2013-1-31,30.0,21.8,14.4,28.5,19.0,12.3,98,89,70,29.75,29.15,14,4,0,0.00